KOWB/OWB METAR and TAF weather

Enter ICAO airport designator
Station Type Date Time Source
KOWB METAR 2022/05/25 00:56 UTC NOAA

KOWB 250056Z 13011G16KT 10SM -RA BKN060 OVC085 21/16 A3001 RMK AO2 RAB55 SLP163 P0000 T02110161


Station Type Date Time Source
KOWB Decoded METAR 2022/05/25 00:56 UTC NOAA

Owensboro, Owensboro-Daviess County Airport, KY, United States (KOWB) 37-44-24N 087-10-00W
May 24, 2022 - 08:56 PM EDT / 2022.05.25 0056 UTC
Wind: from the SE (130 degrees) at 13 MPH (11 KT) gusting to 18 MPH (16 KT):0
Visibility: 10 mile(s):0
Sky conditions: overcast
Weather: light rain
Precipitation last hour: A trace
Temperature: 70.0 F (21.1 C)
Dew Point: 61.0 F (16.1 C)
Relative Humidity: 73%
Pressure (altimeter): 30.01 in. Hg (1016 hPa)
ob: KOWB 250056Z 13011G16KT 10SM -RA BKN060 OVC085 21/16 A3001 RMK AO2 RAB55 SLP163 P0000 T02110161
cycle: 1

Station Type Date Time Source
KOWB TAF 2022/05/24 23:24 UTC NOAA

TAF
AMD KOWB 242322Z 2423/2518 10010KT P6SM OVC150
FM250200 13009KT P6SM VCSH BKN040
FM250800 14011KT P6SM -SHRA BKN020
FM251200 16010KT P6SM BKN010

Example: see airport list